sensor_id;sensor_type;location;lat;lon;timestamp;pressure;altitude;pressure_sealevel;temperature;humidity
3844;BME280;1937;51.444;6.484;2023-06-22T00:02:26;68894.22;;;20.97;77.71
3844;BME280;1937;51.444;6.484;2023-06-22T00:04:53;68939.41;;;21.02;77.30
3844;BME280;1937;51.444;6.484;2023-06-22T00:07:19;68874.84;;;20.84;77.99
3844;BME280;1937;51.444;6.484;2023-06-22T00:09:46;68932.34;;;21.16;77.44
3844;BME280;1937;51.444;6.484;2023-06-22T00:12:12;68944.06;;;21.21;77.19
3844;BME280;1937;51.444;6.484;2023-06-22T00:14:39;68996.91;;;21.33;76.63
3844;BME280;1937;51.444;6.484;2023-06-22T00:17:07;68884.84;;;20.93;78.37
3844;BME280;1937;51.444;6.484;2023-06-22T00:19:34;69016.59;;;21.07;77.34
3844;BME280;1937;51.444;6.484;2023-06-22T00:22:01;68914.31;;;20.98;78.19
3844;BME280;1937;51.444;6.484;2023-06-22T00:24:28;68961.56;;;21.23;77.90
3844;BME280;1937;51.444;6.484;2023-06-22T00:26:55;68987.91;;;21.32;77.53
3844;BME280;1937;51.444;6.484;2023-06-22T00:29:22;69037.75;;;21.37;77.33
3844;BME280;1937;51.444;6.484;2023-06-22T00:31:48;69032.03;;;21.45;76.79
3844;BME280;1937;51.444;6.484;2023-06-22T00:34:16;69026.28;;;21.49;76.86
3844;BME280;1937;51.444;6.484;2023-06-22T00:36:43;69025.75;;;21.33;77.79
3844;BME280;1937;51.444;6.484;2023-06-22T00:39:10;69000.88;;;21.43;77.25
3844;BME280;1937;51.444;6.484;2023-06-22T00:41:37;68973.16;;;21.19;77.72
3844;BME280;1937;51.444;6.484;2023-06-22T00:44:04;68947.97;;;21.11;77.86
3844;BME280;1937;51.444;6.484;2023-06-22T00:46:32;68860.97;;;20.91;78.77
3844;BME280;1937;51.444;6.484;2023-06-22T00:48:59;69004.66;;;21.24;77.61
3844;BME280;1937;51.444;6.484;2023-06-22T00:51:27;69083.13;;;21.35;77.44
3844;BME280;1937;51.444;6.484;2023-06-22T00:53:54;68986.59;;;21.42;77.07
3844;BME280;1937;51.444;6.484;2023-06-22T00:56:23;68916.28;;;21.13;77.62
3844;BME280;1937;51.444;6.484;2023-06-22T00:58:51;68976.03;;;21.17;77.75
3844;BME280;1937;51.444;6.484;2023-06-22T01:01:19;68995.28;;;21.20;77.56
3844;BME280;1937;51.444;6.484;2023-06-22T01:03:49;68903.66;;;21.05;77.69
3844;BME280;1937;51.444;6.484;2023-06-22T01:06:22;68892.53;;;21.00;78.52
3844;BME280;1937;51.444;6.484;2023-06-22T01:09:01;68955.06;;;21.17;78.12
3844;BME280;1937;51.444;6.484;2023-06-22T01:11:33;68949.09;;;21.08;77.66
3844;BME280;1937;51.444;6.484;2023-06-22T01:14:07;68916.88;;;20.94;78.48
3844;BME280;1937;51.444;6.484;2023-06-22T01:16:41;68931.47;;;20.97;79.23
3844;BME280;1937;51.444;6.484;2023-06-22T01:19:20;68933.16;;;20.94;79.55
3844;BME280;1937;51.444;6.484;2023-06-22T01:21:52;68924.59;;;20.84;80.16
3844;BME280;1937;51.444;6.484;2023-06-22T01:24:27;68948.69;;;21.01;79.92
3844;BME280;1937;51.444;6.484;2023-06-22T01:27:04;68923.28;;;20.95;80.04
3844;BME280;1937;51.444;6.484;2023-06-22T01:29:38;68915.84;;;21.02;79.48
3844;BME280;1937;51.444;6.484;2023-06-22T01:32:06;69009.81;;;21.04;79.50
3844;BME280;1937;51.444;6.484;2023-06-22T01:34:34;68944.22;;;20.95;79.91
3844;BME280;1937;51.444;6.484;2023-06-22T01:37:02;68985.59;;;20.99;80.13
3844;BME280;1937;51.444;6.484;2023-06-22T01:39:29;68973.31;;;21.13;79.88
3844;BME280;1937;51.444;6.484;2023-06-22T01:41:57;68948.69;;;21.01;79.80
3844;BME280;1937;51.444;6.484;2023-06-22T01:44:25;68946.50;;;20.92;80.08
3844;BME280;1937;51.444;6.484;2023-06-22T01:46:53;68995.06;;;20.91;80.11
3844;BME280;1937;51.444;6.484;2023-06-22T01:49:21;68890.47;;;20.80;80.66
3844;BME280;1937;51.444;6.484;2023-06-22T01:51:48;68909.66;;;20.78;81.17
3844;BME280;1937;51.444;6.484;2023-06-22T01:54:15;68912.53;;;20.76;81.02
3844;BME280;1937;51.444;6.484;2023-06-22T01:56:41;68886.03;;;20.74;81.52
3844;BME280;1937;51.444;6.484;2023-06-22T01:59:12;68888.19;;;20.62;82.09
3844;BME280;1937;51.444;6.484;2023-06-22T02:01:44;68908.84;;;20.64;81.89
3844;BME280;1937;51.444;6.484;2023-06-22T02:04:19;68875.50;;;20.49;82.85
3844;BME280;1937;51.444;6.484;2023-06-22T02:06:50;68871.94;;;20.46;83.14
3844;BME280;1937;51.444;6.484;2023-06-22T02:09:20;68866.88;;;20.55;82.52
3844;BME280;1937;51.444;6.484;2023-06-22T02:11:50;68778.34;;;20.47;82.06
3844;BME280;1937;51.444;6.484;2023-06-22T02:14:21;68806.66;;;20.35;82.95
3844;BME280;1937;51.444;6.484;2023-06-22T02:16:48;68880.44;;;20.51;82.72
3844;BME280;1937;51.444;6.484;2023-06-22T02:19:17;68832.50;;;20.32;83.83
3844;BME280;1937;51.444;6.484;2023-06-22T02:21:48;68968.25;;;20.34;83.48
3844;BME280;1937;51.444;6.484;2023-06-22T02:24:15;68906.63;;;20.51;82.74
3844;BME280;1937;51.444;6.484;2023-06-22T02:26:42;68842.31;;;20.48;83.26
3844;BME280;1937;51.444;6.484;2023-06-22T02:29:10;68875.75;;;20.47;83.02
3844;BME280;1937;51.444;6.484;2023-06-22T02:31:37;68989.66;;;20.46;83.00
3844;BME280;1937;51.444;6.484;2023-06-22T02:34:04;68819.00;;;20.25;83.58
3844;BME280;1937;51.444;6.484;2023-06-22T02:36:32;68855.63;;;20.61;82.92
3844;BME280;1937;51.444;6.484;2023-06-22T02:38:59;68918.66;;;20.59;82.82
3844;BME280;1937;51.444;6.484;2023-06-22T02:41:26;68951.63;;;20.47;82.64
3844;BME280;1937;51.444;6.484;2023-06-22T02:43:53;68867.50;;;20.60;82.76
3844;BME280;1937;51.444;6.484;2023-06-22T02:46:19;68849.72;;;20.56;82.65
3844;BME280;1937;51.444;6.484;2023-06-22T02:48:46;68943.88;;;20.36;83.47
3844;BME280;1937;51.444;6.484;2023-06-22T02:51:13;68897.22;;;20.63;82.77
3844;BME280;1937;51.444;6.484;2023-06-22T02:53:41;68923.78;;;20.70;82.55
3844;BME280;1937;51.444;6.484;2023-06-22T02:56:09;68919.06;;;20.66;82.89
3844;BME280;1937;51.444;6.484;2023-06-22T02:58:38;68867.50;;;20.40;83.58
3844;BME280;1937;51.444;6.484;2023-06-22T03:01:05;68870.50;;;20.47;83.81
3844;BME280;1937;51.444;6.484;2023-06-22T03:03:31;68867.25;;;20.42;83.70
3844;BME280;1937;51.444;6.484;2023-06-22T03:05:58;68910.38;;;20.16;84.40
3844;BME280;1937;51.444;6.484;2023-06-22T03:08:26;68859.25;;;20.17;84.59
3844;BME280;1937;51.444;6.484;2023-06-22T03:10:54;68946.41;;;20.16;84.91
3844;BME280;1937;51.444;6.484;2023-06-22T03:13:21;68803.88;;;20.06;85.07
3844;BME280;1937;51.444;6.484;2023-06-22T03:15:48;68768.84;;;19.93;85.17
3844;BME280;1937;51.444;6.484;2023-06-22T03:18:15;68915.69;;;20.21;84.24
3844;BME280;1937;51.444;6.484;2023-06-22T03:20:42;68916.44;;;20.15;84.33
3844;BME280;1937;51.444;6.484;2023-06-22T03:23:08;68838.00;;;20.15;84.38
3844;BME280;1937;51.444;6.484;2023-06-22T03:25:35;68835.91;;;20.11;84.99
3844;BME280;1937;51.444;6.484;2023-06-22T03:28:03;68821.94;;;20.08;84.98
3844;BME280;1937;51.444;6.484;2023-06-22T03:30:30;68876.13;;;20.18;84.51
3844;BME280;1937;51.444;6.484;2023-06-22T03:32:57;68997.78;;;20.13;85.14
3844;BME280;1937;51.444;6.484;2023-06-22T03:35:23;68878.69;;;20.14;85.15
3844;BME280;1937;51.444;6.484;2023-06-22T03:37:50;68829.31;;;20.16;84.99
3844;BME280;1937;51.444;6.484;2023-06-22T03:40:17;68882.56;;;20.03;85.20
3844;BME280;1937;51.444;6.484;2023-06-22T03:42:43;68841.72;;;20.11;85.58
3844;BME280;1937;51.444;6.484;2023-06-22T03:45:11;68844.03;;;20.09;85.52
3844;BME280;1937;51.444;6.484;2023-06-22T03:47:38;68806.28;;;19.92;86.69
3844;BME280;1937;51.444;6.484;2023-06-22T03:50:05;68753.63;;;19.85;86.79
3844;BME280;1937;51.444;6.484;2023-06-22T03:52:32;68826.09;;;19.95;86.45
3844;BME280;1937;51.444;6.484;2023-06-22T03:55:00;68836.81;;;19.93;86.03
3844;BME280;1937;51.444;6.484;2023-06-22T03:57:27;68907.13;;;19.95;85.77
3844;BME280;1937;51.444;6.484;2023-06-22T03:59:56;68816.41;;;19.89;86.57
3844;BME280;1937;51.444;6.484;2023-06-22T04:02:25;68879.09;;;20.05;86.33
3844;BME280;1937;51.444;6.484;2023-06-22T04:04:51;68836.19;;;20.09;86.20
3844;BME280;1937;51.444;6.484;2023-06-22T04:07:18;68846.97;;;20.11;86.61
3844;BME280;1937;51.444;6.484;2023-06-22T04:09:45;68860.38;;;20.14;86.35
3844;BME280;1937;51.444;6.484;2023-06-22T04:12:11;68885.41;;;20.17;86.44
3844;BME280;1937;51.444;6.484;2023-06-22T04:14:38;68872.91;;;20.33;85.81
3844;BME280;1937;51.444;6.484;2023-06-22T04:17:05;68941.00;;;20.38;85.07
3844;BME280;1937;51.444;6.484;2023-06-22T04:19:34;68939.66;;;20.43;84.95
3844;BME280;1937;51.444;6.484;2023-06-22T04:22:01;68879.31;;;20.34;85.19
3844;BME280;1937;51.444;6.484;2023-06-22T04:24:28;68873.44;;;20.14;85.86
3844;BME280;1937;51.444;6.484;2023-06-22T04:26:54;68976.06;;;20.50;85.00
3844;BME280;1937;51.444;6.484;2023-06-22T04:29:21;69000.81;;;20.51;85.07
3844;BME280;1937;51.444;6.484;2023-06-22T04:31:54;68972.03;;;20.51;85.17
3844;BME280;1937;51.444;6.484;2023-06-22T04:34:22;69028.66;;;20.48;85.20
3844;BME280;1937;51.444;6.484;2023-06-22T04:39:50;69007.31;;;20.25;85.73
3844;BME280;1937;51.444;6.484;2023-06-22T04:40:15;68930.00;;;20.26;86.24
3844;BME280;1937;51.444;6.484;2023-06-22T04:43:09;68873.59;;;20.23;85.81
3844;BME280;1937;51.444;6.484;2023-06-22T04:45:39;68980.88;;;20.59;85.12
3844;BME280;1937;51.444;6.484;2023-06-22T04:48:09;68917.53;;;20.42;85.31
3844;BME280;1937;51.444;6.484;2023-06-22T04:51:15;68985.69;;;20.67;85.11
3844;BME280;1937;51.444;6.484;2023-06-22T04:53:44;69035.81;;;20.74;84.72
3844;BME280;1937;51.444;6.484;2023-06-22T04:56:11;68974.47;;;20.58;85.16
3844;BME280;1937;51.444;6.484;2023-06-22T05:02:06;69047.88;;;20.82;84.32
3844;BME280;1937;51.444;6.484;2023-06-22T05:04:35;69028.81;;;20.73;84.98
3844;BME280;1937;51.444;6.484;2023-06-22T05:07:17;69104.63;;;20.84;84.66
3844;BME280;1937;51.444;6.484;2023-06-22T05:12:56;69089.25;;;20.87;84.79
3844;BME280;1937;51.444;6.484;2023-06-22T05:18:55;69191.88;;;20.98;83.74
3844;BME280;1937;51.444;6.484;2023-06-22T05:21:25;69028.69;;;21.00;83.58
3844;BME280;1937;51.444;6.484;2023-06-22T05:24:46;69133.50;;;21.04;83.75
3844;BME280;1937;51.444;6.484;2023-06-22T05:27:45;69138.56;;;21.11;83.55
3844;BME280;1937;51.444;6.484;2023-06-22T05:30:18;69101.06;;;21.12;83.02
3844;BME280;1937;51.444;6.484;2023-06-22T05:32:55;69043.72;;;20.95;83.01
3844;BME280;1937;51.444;6.484;2023-06-22T05:35:29;69132.50;;;21.12;83.37
3844;BME280;1937;51.444;6.484;2023-06-22T05:38:10;69082.47;;;21.14;83.26
3844;BME280;1937;51.444;6.484;2023-06-22T05:40:39;69208.97;;;21.24;83.00
3844;BME280;1937;51.444;6.484;2023-06-22T05:43:06;69155.91;;;21.19;83.18
3844;BME280;1937;51.444;6.484;2023-06-22T05:45:34;69148.97;;;21.22;82.77
3844;BME280;1937;51.444;6.484;2023-06-22T05:48:01;69153.34;;;21.39;82.81
3844;BME280;1937;51.444;6.484;2023-06-22T05:50:28;69194.19;;;21.27;82.43
3844;BME280;1937;51.444;6.484;2023-06-22T05:52:55;69158.84;;;21.21;83.22
3844;BME280;1937;51.444;6.484;2023-06-22T05:55:22;69183.69;;;21.11;83.33
3844;BME280;1937;51.444;6.484;2023-06-22T05:57:49;69066.53;;;21.01;84.05
3844;BME280;1937;51.444;6.484;2023-06-22T06:00:19;69122.69;;;20.70;84.76
3844;BME280;1937;51.444;6.484;2023-06-22T06:02:48;69131.75;;;21.03;84.46
3844;BME280;1937;51.444;6.484;2023-06-22T06:05:18;69229.03;;;21.10;83.71
3844;BME280;1937;51.444;6.484;2023-06-22T06:07:47;69139.50;;;20.98;84.50
3844;BME280;1937;51.444;6.484;2023-06-22T06:10:23;69148.53;;;20.99;83.90
3844;BME280;1937;51.444;6.484;2023-06-22T06:12:50;69088.34;;;20.83;84.48
3844;BME280;1937;51.444;6.484;2023-06-22T06:15:18;69108.56;;;21.10;83.52
3844;BME280;1937;51.444;6.484;2023-06-22T06:17:53;69066.88;;;20.88;84.53
3844;BME280;1937;51.444;6.484;2023-06-22T06:20:21;69106.97;;;20.86;84.81
3844;BME280;1937;51.444;6.484;2023-06-22T06:22:50;68981.56;;;20.48;86.83
3844;BME280;1937;51.444;6.484;2023-06-22T06:25:17;69018.09;;;20.59;87.18
3844;BME280;1937;51.444;6.484;2023-06-22T06:27:46;68995.84;;;20.49;88.11
3844;BME280;1937;51.444;6.484;2023-06-22T06:30:14;68995.34;;;20.37;89.04
3844;BME280;1937;51.444;6.484;2023-06-22T06:32:42;69102.88;;;20.67;88.91
3844;BME280;1937;51.444;6.484;2023-06-22T06:35:13;69076.25;;;20.75;88.60
3844;BME280;1937;51.444;6.484;2023-06-22T06:37:42;69180.03;;;20.72;89.05
3844;BME280;1937;51.444;6.484;2023-06-22T06:40:11;69098.22;;;20.67;89.41
3844;BME280;1937;51.444;6.484;2023-06-22T06:42:39;69102.75;;;20.62;90.22
3844;BME280;1937;51.444;6.484;2023-06-22T06:45:07;69092.78;;;20.74;89.86
3844;BME280;1937;51.444;6.484;2023-06-22T06:47:34;69157.16;;;20.93;88.88
3844;BME280;1937;51.444;6.484;2023-06-22T06:50:02;69143.72;;;20.91;89.07
3844;BME280;1937;51.444;6.484;2023-06-22T06:52:30;69154.38;;;21.00;88.99
3844;BME280;1937;51.444;6.484;2023-06-22T06:54:57;69114.66;;;20.93;88.89
3844;BME280;1937;51.444;6.484;2023-06-22T06:57:25;69214.53;;;21.11;88.51
3844;BME280;1937;51.444;6.484;2023-06-22T06:59:54;69270.19;;;21.43;86.85
3844;BME280;1937;51.444;6.484;2023-06-22T07:02:21;69356.31;;;21.56;85.99
3844;BME280;1937;51.444;6.484;2023-06-22T07:04:47;69318.03;;;21.63;85.18
3844;BME280;1937;51.444;6.484;2023-06-22T07:07:14;69306.72;;;21.65;85.63
3844;BME280;1937;51.444;6.484;2023-06-22T07:09:42;69289.78;;;21.48;86.69
3844;BME280;1937;51.444;6.484;2023-06-22T07:12:09;69328.78;;;21.61;85.62
3844;BME280;1937;51.444;6.484;2023-06-22T07:14:36;69433.63;;;21.88;83.85
3844;BME280;1937;51.444;6.484;2023-06-22T07:17:03;69449.09;;;22.17;83.08
3844;BME280;1937;51.444;6.484;2023-06-22T07:19:30;69598.59;;;22.28;82.58
3844;BME280;1937;51.444;6.484;2023-06-22T07:21:57;69498.56;;;22.41;81.94
3844;BME280;1937;51.444;6.484;2023-06-22T07:24:24;69598.47;;;22.62;81.43
3844;BME280;1937;51.444;6.484;2023-06-22T07:26:52;69603.00;;;22.83;79.29
3844;BME280;1937;51.444;6.484;2023-06-22T07:29:19;69530.00;;;22.53;78.75
3844;BME280;1937;51.444;6.484;2023-06-22T07:31:47;69530.00;;;22.53;79.54
3844;BME280;1937;51.444;6.484;2023-06-22T07:34:15;69548.00;;;22.34;80.65
3844;BME280;1937;51.444;6.484;2023-06-22T07:36:42;69441.13;;;22.28;81.42
3844;BME280;1937;51.444;6.484;2023-06-22T07:39:09;69427.41;;;22.12;81.15
3844;BME280;1937;51.444;6.484;2023-06-22T07:41:36;69470.22;;;22.53;79.99
3844;BME280;1937;51.444;6.484;2023-06-22T07:44:07;69577.00;;;22.81;78.88
3844;BME280;1937;51.444;6.484;2023-06-22T07:46:34;69623.72;;;22.97;77.84
3844;BME280;1937;51.444;6.484;2023-06-22T07:49:01;69629.50;;;23.08;78.21
3844;BME280;1937;51.444;6.484;2023-06-22T07:51:28;69698.63;;;23.18;78.01
3844;BME280;1937;51.444;6.484;2023-06-22T07:53:55;69774.22;;;23.17;77.14
3844;BME280;1937;51.444;6.484;2023-06-22T07:56:21;69689.16;;;23.25;76.92
3844;BME280;1937;51.444;6.484;2023-06-22T07:58:48;69723.44;;;23.46;76.37
3844;BME280;1937;51.444;6.484;2023-06-22T08:01:16;69734.56;;;23.46;75.75
3844;BME280;1937;51.444;6.484;2023-06-22T08:03:46;69721.56;;;23.40;77.32
3844;BME280;1937;51.444;6.484;2023-06-22T08:06:13;69658.59;;;23.17;76.26
3844;BME280;1937;51.444;6.484;2023-06-22T08:08:40;69613.53;;;22.99;77.16
3844;BME280;1937;51.444;6.484;2023-06-22T08:11:07;69590.22;;;22.86;78.85
3844;BME280;1937;51.444;6.484;2023-06-22T08:13:34;69479.94;;;22.59;79.42
3844;BME280;1937;51.444;6.484;2023-06-22T08:16:01;69535.25;;;22.68;80.72
3844;BME280;1937;51.444;6.484;2023-06-22T08:18:29;69560.47;;;22.72;80.17
3844;BME280;1937;51.444;6.484;2023-06-22T08:20:56;69585.13;;;22.79;79.14
3844;BME280;1937;51.444;6.484;2023-06-22T08:23:22;69520.22;;;22.73;79.00
3844;BME280;1937;51.444;6.484;2023-06-22T08:25:49;69526.53;;;22.70;79.07
3844;BME280;1937;51.444;6.484;2023-06-22T08:28:16;69485.28;;;22.48;79.98
3844;BME280;1937;51.444;6.484;2023-06-22T08:30:43;69485.81;;;22.17;80.90
3844;BME280;1937;51.444;6.484;2023-06-22T08:33:10;69506.88;;;22.49;80.34
3844;BME280;1937;51.444;6.484;2023-06-22T08:35:38;69458.75;;;22.34;81.25
3844;BME280;1937;51.444;6.484;2023-06-22T08:38:04;69601.31;;;22.60;80.46
3844;BME280;1937;51.444;6.484;2023-06-22T08:40:31;69515.69;;;22.52;80.67
3844;BME280;1937;51.444;6.484;2023-06-22T08:42:58;69499.97;;;22.67;80.02
3844;BME280;1937;51.444;6.484;2023-06-22T08:45:25;69510.19;;;22.54;80.15
3844;BME280;1937;51.444;6.484;2023-06-22T08:47:51;69431.84;;;22.29;81.01
3844;BME280;1937;51.444;6.484;2023-06-22T08:50:18;69458.19;;;22.50;80.70
3844;BME280;1937;51.444;6.484;2023-06-22T08:52:46;69458.59;;;22.41;80.66
3844;BME280;1937;51.444;6.484;2023-06-22T08:55:13;69519.25;;;22.55;79.99
3844;BME280;1937;51.444;6.484;2023-06-22T08:57:40;69496.97;;;22.49;80.21
3844;BME280;1937;51.444;6.484;2023-06-22T09:00:09;69626.47;;;22.63;78.75
3844;BME280;1937;51.444;6.484;2023-06-22T09:02:41;69638.16;;;23.02;78.97
3844;BME280;1937;51.444;6.484;2023-06-22T09:05:09;69637.72;;;23.11;78.51
3844;BME280;1937;51.444;6.484;2023-06-22T09:07:36;69560.50;;;23.03;77.84
3844;BME280;1937;51.444;6.484;2023-06-22T09:10:05;69739.38;;;23.39;77.92
3844;BME280;1937;51.444;6.484;2023-06-22T09:12:33;69817.50;;;23.45;77.73
3844;BME280;1937;51.444;6.484;2023-06-22T09:15:00;69718.59;;;23.37;77.33
3844;BME280;1937;51.444;6.484;2023-06-22T09:17:28;69690.34;;;23.26;77.88
3844;BME280;1937;51.444;6.484;2023-06-22T09:19:55;69676.47;;;23.21;78.03
3844;BME280;1937;51.444;6.484;2023-06-22T09:22:21;69606.25;;;23.00;79.04
3844;BME280;1937;51.444;6.484;2023-06-22T09:24:48;69698.63;;;23.18;78.66
3844;BME280;1937;51.444;6.484;2023-06-22T09:27:16;69739.97;;;23.40;77.88
3844;BME280;1937;51.444;6.484;2023-06-22T09:29:43;69817.72;;;23.54;77.00
3844;BME280;1937;51.444;6.484;2023-06-22T09:32:10;69838.09;;;23.76;76.51
3844;BME280;1937;51.444;6.484;2023-06-22T09:34:37;69873.66;;;23.86;75.96
3844;BME280;1937;51.444;6.484;2023-06-22T09:37:04;69845.22;;;23.82;75.41
3844;BME280;1937;51.444;6.484;2023-06-22T09:39:31;69837.63;;;23.96;75.40
3844;BME280;1937;51.444;6.484;2023-06-22T09:41:58;69774.94;;;23.76;75.92
3844;BME280;1937;51.444;6.484;2023-06-22T09:44:26;69715.44;;;23.25;77.13
3844;BME280;1937;51.444;6.484;2023-06-22T09:46:53;69704.47;;;23.18;78.04
3844;BME280;1937;51.444;6.484;2023-06-22T09:49:20;69544.13;;;22.87;79.87
3844;BME280;1937;51.444;6.484;2023-06-22T09:51:46;69720.41;;;23.27;77.88
3844;BME280;1937;51.444;6.484;2023-06-22T09:54:15;69718.25;;;23.35;78.20
3844;BME280;1937;51.444;6.484;2023-06-22T09:56:41;69919.72;;;23.81;75.78
3844;BME280;1937;51.444;6.484;2023-06-22T09:59:08;69948.50;;;24.36;74.33
3844;BME280;1937;51.444;6.484;2023-06-22T10:01:39;70090.03;;;24.69;73.56
3844;BME280;1937;51.444;6.484;2023-06-22T10:04:06;70148.22;;;24.78;72.79
3844;BME280;1937;51.444;6.484;2023-06-22T10:06:33;70181.38;;;25.04;70.80
3844;BME280;1937;51.444;6.484;2023-06-22T10:08:59;70209.31;;;24.97;71.85
3844;BME280;1937;51.444;6.484;2023-06-22T10:11:26;70295.31;;;25.38;71.38
3844;BME280;1937;51.444;6.484;2023-06-22T10:13:55;70212.16;;;25.06;70.87
3844;BME280;1937;51.444;6.484;2023-06-22T10:16:30;70333.75;;;25.53;70.04
3844;BME280;1937;51.444;6.484;2023-06-22T10:18:58;70312.56;;;25.59;70.28
3844;BME280;1937;51.444;6.484;2023-06-22T10:21:24;70444.72;;;25.57;70.10
3844;BME280;1937;51.444;6.484;2023-06-22T10:23:52;70234.41;;;25.29;69.67
3844;BME280;1937;51.444;6.484;2023-06-22T10:26:19;70097.50;;;25.00;70.35
3844;BME280;1937;51.444;6.484;2023-06-22T10:28:45;70172.84;;;25.15;70.04
3844;BME280;1937;51.444;6.484;2023-06-22T10:31:12;70275.78;;;25.31;70.93
3844;BME280;1937;51.444;6.484;2023-06-22T10:33:39;70411.47;;;25.87;68.21
3844;BME280;1937;51.444;6.484;2023-06-22T10:36:08;70447.59;;;26.00;68.13
3844;BME280;1937;51.444;6.484;2023-06-22T10:38:34;70326.22;;;25.55;69.41
3844;BME280;1937;51.444;6.484;2023-06-22T10:41:01;70369.63;;;25.79;68.15
3844;BME280;1937;51.444;6.484;2023-06-22T10:43:28;70313.03;;;25.66;68.73
3844;BME280;1937;51.444;6.484;2023-06-22T10:45:54;70236.41;;;25.40;69.50
3844;BME280;1937;51.444;6.484;2023-06-22T10:48:21;70154.81;;;25.22;69.79
3844;BME280;1937;51.444;6.484;2023-06-22T10:50:48;70041.03;;;24.77;71.00
3844;BME280;1937;51.444;6.484;2023-06-22T10:53:16;70058.16;;;24.71;72.10
3844;BME280;1937;51.444;6.484;2023-06-22T10:55:42;69970.13;;;24.48;72.66
3844;BME280;1937;51.444;6.484;2023-06-22T10:58:09;69899.31;;;24.35;74.37
3844;BME280;1937;51.444;6.484;2023-06-22T11:00:36;70077.53;;;24.47;73.89
3844;BME280;1937;51.444;6.484;2023-06-22T11:03:02;70027.13;;;24.45;73.82
3844;BME280;1937;51.444;6.484;2023-06-22T11:05:29;70019.47;;;24.43;75.11
3844;BME280;1937;51.444;6.484;2023-06-22T11:07:56;70048.91;;;24.50;76.76
3844;BME280;1937;51.444;6.484;2023-06-22T11:10:24;69993.88;;;24.37;75.59
3844;BME280;1937;51.444;6.484;2023-06-22T11:12:51;69957.53;;;24.22;78.26
3844;BME280;1937;51.444;6.484;2023-06-22T11:15:18;70076.59;;;24.44;78.12
3844;BME280;1937;51.444;6.484;2023-06-22T11:17:45;70200.94;;;24.45;77.75
3844;BME280;1937;51.444;6.484;2023-06-22T11:20:12;70030.22;;;24.52;77.23
3844;BME280;1937;51.444;6.484;2023-06-22T11:22:39;70085.75;;;24.61;77.66
3844;BME280;1937;51.444;6.484;2023-06-22T11:25:06;70110.50;;;24.69;75.98
3844;BME280;1937;51.444;6.484;2023-06-22T11:27:35;70167.88;;;24.57;75.94
3844;BME280;1937;51.444;6.484;2023-06-22T11:30:02;69965.72;;;24.08;80.07
3844;BME280;1937;51.444;6.484;2023-06-22T11:32:29;69802.94;;;23.73;83.94
3844;BME280;1937;51.444;6.484;2023-06-22T11:34:56;69930.84;;;23.81;85.05
3844;BME280;1937;51.444;6.484;2023-06-22T11:37:23;69986.00;;;23.77;86.96
3844;BME280;1937;51.444;6.484;2023-06-22T11:39:49;69966.75;;;23.78;86.76
3844;BME280;1937;51.444;6.484;2023-06-22T11:42:16;69958.13;;;23.84;84.49
3844;BME280;1937;51.444;6.484;2023-06-22T11:44:44;69922.41;;;23.70;88.36
3844;BME280;1937;51.444;6.484;2023-06-22T11:47:11;69896.41;;;23.34;92.70
3844;BME280;1937;51.444;6.484;2023-06-22T11:49:37;69726.63;;;22.66;97.42
3844;BME280;1937;51.444;6.484;2023-06-22T11:52:05;69772.88;;;22.25;99.56
3844;BME280;1937;51.444;6.484;2023-06-22T11:54:32;69713.91;;;22.46;100.00
3844;BME280;1937;51.444;6.484;2023-06-22T11:56:59;69681.63;;;22.25;100.00
3844;BME280;1937;51.444;6.484;2023-06-22T11:59:25;69607.91;;;21.89;100.00
3844;BME280;1937;51.444;6.484;2023-06-22T12:01:53;69583.16;;;21.66;100.00
3844;BME280;1937;51.444;6.484;2023-06-22T12:04:20;69619.19;;;21.50;100.00
3844;BME280;1937;51.444;6.484;2023-06-22T12:06:47;69592.94;;;21.61;100.00
3844;BME280;1937;51.444;6.484;2023-06-22T12:09:14;69716.41;;;21.48;100.00
3844;BME280;1937;51.444;6.484;2023-06-22T12:11:40;69688.03;;;21.66;100.00
3844;BME280;1937;51.444;6.484;2023-06-22T12:14:07;69752.97;;;21.88;100.00
3844;BME280;1937;51.444;6.484;2023-06-22T12:16:34;69789.25;;;22.03;100.00
3844;BME280;1937;51.444;6.484;2023-06-22T12:19:02;69933.00;;;22.36;100.00
3844;BME280;1937;51.444;6.484;2023-06-22T12:21:28;70079.56;;;22.62;100.00
3844;BME280;1937;51.444;6.484;2023-06-22T12:23:55;70126.81;;;22.80;100.00
3844;BME280;1937;51.444;6.484;2023-06-22T12:26:22;70169.00;;;22.84;100.00
3844;BME280;1937;51.444;6.484;2023-06-22T12:28:48;70222.41;;;22.94;100.00
3844;BME280;1937;51.444;6.484;2023-06-22T12:31:15;70207.22;;;22.95;100.00
3844;BME280;1937;51.444;6.484;2023-06-22T12:33:42;70192.63;;;22.84;100.00
3844;BME280;1937;51.444;6.484;2023-06-22T12:36:10;70093.34;;;22.74;100.00
3844;BME280;1937;51.444;6.484;2023-06-22T12:38:36;70117.59;;;22.74;100.00
3844;BME280;1937;51.444;6.484;2023-06-22T12:41:03;70174.09;;;22.80;100.00
3844;BME280;1937;51.444;6.484;2023-06-22T12:43:30;70277.75;;;23.10;100.00
3844;BME280;1937;51.444;6.484;2023-06-22T12:45:56;70193.31;;;23.07;100.00
3844;BME280;1937;51.444;6.484;2023-06-22T12:48:26;70239.88;;;23.02;100.00
3844;BME280;1937;51.444;6.484;2023-06-22T12:50:53;70451.09;;;23.58;100.00
3844;BME280;1937;51.444;6.484;2023-06-22T12:53:21;70507.00;;;23.88;96.64
3844;BME280;1937;51.444;6.484;2023-06-22T12:55:49;70410.06;;;23.73;95.78
3844;BME280;1937;51.444;6.484;2023-06-22T12:58:15;70381.44;;;23.64;97.00
3844;BME280;1937;51.444;6.484;2023-06-22T13:00:42;70290.31;;;23.56;95.38
3844;BME280;1937;51.444;6.484;2023-06-22T13:03:09;70361.13;;;23.69;98.15
3844;BME280;1937;51.444;6.484;2023-06-22T13:05:35;70472.72;;;23.94;94.67
3844;BME280;1937;51.444;6.484;2023-06-22T13:08:03;70534.72;;;24.40;93.38
3844;BME280;1937;51.444;6.484;2023-06-22T13:10:31;70717.66;;;25.01;90.06
3844;BME280;1937;51.444;6.484;2023-06-22T13:12:58;70538.53;;;24.59;89.29
3844;BME280;1937;51.444;6.484;2023-06-22T13:15:26;70312.41;;;23.92;90.03
3844;BME280;1937;51.444;6.484;2023-06-22T13:17:53;70388.84;;;23.68;91.14
3844;BME280;1937;51.444;6.484;2023-06-22T13:20:19;70235.53;;;23.63;92.18
3844;BME280;1937;51.444;6.484;2023-06-22T13:22:46;70119.97;;;23.27;92.66
3844;BME280;1937;51.444;6.484;2023-06-22T13:25:13;70035.97;;;22.99;95.18
3844;BME280;1937;51.444;6.484;2023-06-22T13:27:45;70033.81;;;22.83;95.61
3844;BME280;1937;51.444;6.484;2023-06-22T13:30:12;70079.16;;;22.77;97.73
3844;BME280;1937;51.444;6.484;2023-06-22T13:32:39;70075.75;;;23.01;95.30
3844;BME280;1937;51.444;6.484;2023-06-22T13:35:08;69986.53;;;22.72;96.54
3844;BME280;1937;51.444;6.484;2023-06-22T13:37:35;70016.22;;;22.71;96.11